createdAt,value
2022-11-16T04:53:58.625Z,99734.91
2022-11-16T05:58:41.295Z,99676.78
2022-11-16T06:03:04.727Z,99667.16
2022-11-16T06:56:58.111Z,99653.06
2022-11-16T07:13:38.308Z,99645.66
2022-11-16T07:17:38.594Z,99639.19
2022-11-16T07:27:02.891Z,99643.19
2022-11-16T07:30:31.317Z,99634.94
2022-11-16T07:39:19.772Z,99624.94
2022-11-16T07:43:27.333Z,99624.53
2022-11-16T07:52:25.952Z,99618.94
2022-11-16T07:56:16.751Z,99615.41
2022-11-16T08:00:56.570Z,99612.44
2022-11-16T08:04:28.867Z,99605.13
2022-11-16T08:08:56.661Z,99604.22
2022-11-16T08:12:38.522Z,99598.59
2022-11-16T08:16:24.102Z,99598.09
2022-11-16T08:19:46.662Z,99606.50
2022-11-16T08:23:13.494Z,99607.41
2022-11-16T08:26:54.307Z,99606.19
2022-11-16T08:30:36.328Z,99596.22
2022-11-16T08:34:12.355Z,99600.97
2022-11-16T08:37:42.413Z,99594.66
2022-11-16T08:41:02.894Z,99596.50
2022-11-16T08:55:14.764Z,99599.84
2022-11-16T08:59:02.768Z,99595.75
2022-11-16T09:03:32.158Z,99592.34
2022-11-16T09:07:06.422Z,99590.34
2022-11-16T09:16:59.672Z,99573.69
2022-11-16T09:25:51.881Z,99581.53
2022-11-16T09:29:22.470Z,99582.22
2022-11-16T09:33:14.224Z,99580.06
2022-11-16T09:36:27.663Z,99575.56
2022-11-16T09:40:24.509Z,99576.97
2022-11-16T09:44:45.353Z,99564.91
2022-11-16T09:48:44.433Z,99543.94
2022-11-16T09:53:22.372Z,99550.13
2022-11-16T09:58:04.679Z,99548.19
2022-11-16T10:01:40.123Z,99542.78
2022-11-16T10:05:00.812Z,99535.94
2022-11-16T10:09:27.372Z,99529.91
2022-11-16T10:14:04.006Z,99526.09
2022-11-16T10:18:48.563Z,99515.75
2022-11-16T10:23:47.589Z,99512.63
2022-11-16T10:27:44.072Z,99507.34
2022-11-16T10:32:26.305Z,99499.53
2022-11-16T10:47:17.852Z,99488.53
2022-11-16T11:01:47.088Z,99463.88
2022-11-16T11:05:31.826Z,99463.25
2022-11-16T11:08:51.488Z,99451.78
2022-11-16T11:12:25.507Z,99436.25
2022-11-16T11:15:48.485Z,99433.00
2022-11-16T11:19:41.446Z,99430.53
2022-11-16T11:23:21.827Z,99423.06
2022-11-16T11:27:16.384Z,99425.53
2022-11-16T11:32:06.575Z,99422.09
2022-11-16T11:40:33.228Z,99411.13
2022-11-16T11:43:48.842Z,99404.59
2022-11-16T11:48:02.968Z,99402.13
2022-11-16T11:52:43.088Z,99393.44
2022-11-16T11:56:12.229Z,99395.84
2022-11-16T11:59:22.007Z,99393.44
2022-11-16T12:03:00.502Z,99390.09
2022-11-16T12:06:58.797Z,99390.56
2022-11-16T12:10:47.175Z,99393.72
2022-11-16T12:14:51.564Z,99386.22
2022-11-16T12:18:47.861Z,99396.38
2022-11-16T12:22:59.662Z,99388.13
2022-11-16T12:32:06.501Z,99392.31
2022-11-16T12:36:05.319Z,99384.69
2022-11-16T12:39:38.100Z,99381.34
2022-11-16T12:47:59.668Z,99370.16
2022-11-16T12:51:55.944Z,99368.75
2022-11-16T12:55:26.915Z,99355.69
2022-11-16T12:59:12.875Z,99359.50
2022-11-16T13:07:32.210Z,99362.06
2022-11-16T13:15:21.920Z,99359.28
2022-11-16T13:19:13.528Z,99363.59
2022-11-16T13:22:27.058Z,99365.66
2022-11-16T13:26:21.760Z,99355.66
2022-11-16T13:30:16.484Z,99354.53
2022-11-16T13:34:13.565Z,99355.16
2022-11-16T13:37:47.846Z,99352.94
2022-11-16T13:41:48.798Z,99356.97
2022-11-16T13:46:56.590Z,99356.28
2022-11-16T13:50:45.296Z,99348.78
2022-11-16T13:55:40.532Z,99347.22
2022-11-16T13:59:03.080Z,99347.34
2022-11-16T14:02:42.290Z,99342.91
2022-11-16T14:07:24.765Z,99333.97
2022-11-16T14:11:11.778Z,99337.59
2022-11-16T14:15:34.946Z,99339.63
2022-11-16T14:18:54.101Z,99332.13
2022-11-16T14:22:26.107Z,99326.41
2022-11-16T14:26:21.630Z,99326.91
2022-11-16T14:30:28.539Z,99326.91
2022-11-16T14:33:57.116Z,99326.09
2022-11-16T14:43:15.566Z,99324.47
2022-11-16T14:46:50.240Z,99320.00
2022-11-16T14:50:39.701Z,99321.13
2022-11-16T14:54:08.160Z,99311.25
2022-11-16T14:57:24.663Z,99315.25
2022-11-16T15:01:19.188Z,99316.66
2022-11-16T15:04:57.717Z,99304.09
2022-11-16T15:10:12.956Z,99308.88
2022-11-16T19:17:14.742Z,99216.34
